createdAt,value
2019-04-06T00:01:59.546Z,89.70
2019-04-06T00:04:30.421Z,89.70
2019-04-06T00:07:01.197Z,89.80
2019-04-06T00:09:32.088Z,89.60
2019-04-06T00:12:02.741Z,89.70
2019-04-06T00:14:36.467Z,89.40
2019-04-06T00:17:07.350Z,89.40
2019-04-06T00:19:37.931Z,89.50
2019-04-06T00:22:09.303Z,89.60
2019-04-06T00:24:40.166Z,89.50
2019-04-06T00:27:11.089Z,89.50
2019-04-06T00:29:42.345Z,89.50
2019-04-06T00:32:18.244Z,89.50
2019-04-06T00:34:48.989Z,89.50
2019-04-06T00:37:19.696Z,89.50
2019-04-06T00:39:50.244Z,89.70
2019-04-06T00:42:21.000Z,89.40
2019-04-06T00:44:51.872Z,89.30
2019-04-06T00:47:22.449Z,89.30
2019-04-06T00:49:53.286Z,89.40
2019-04-06T00:52:25.812Z,89.20
2019-04-06T00:54:56.001Z,89.10
2019-04-06T00:57:29.594Z,89.00
2019-04-06T01:00:00.840Z,89.20
2019-04-06T01:02:31.417Z,89.00
2019-04-06T01:05:02.089Z,89.70
2019-04-06T01:07:34.414Z,88.60
2019-04-06T01:10:07.119Z,88.80
2019-04-06T01:12:37.816Z,88.20
2019-04-06T01:15:11.412Z,88.20
2019-04-06T01:17:41.998Z,88.10
2019-04-06T01:20:12.573Z,87.70
2019-04-06T01:22:43.347Z,87.40
2019-04-06T01:25:14.336Z,87.60
2019-04-06T01:27:44.865Z,87.20
2019-04-06T01:30:15.880Z,87.60
2019-04-06T01:32:46.464Z,87.50
2019-04-06T01:35:17.248Z,87.00
2019-04-06T01:37:48.000Z,87.10
2019-04-06T01:40:18.680Z,86.80
2019-04-06T01:42:49.265Z,86.60
2019-04-06T01:45:20.047Z,86.00
2019-04-06T01:47:50.633Z,86.00
2019-04-06T01:50:24.884Z,87.00
2019-04-06T01:52:54.993Z,86.30
2019-04-06T01:55:25.736Z,86.20
2019-04-06T01:57:56.316Z,85.70
2019-04-06T02:00:26.906Z,86.00
2019-04-06T02:02:58.668Z,85.80
2019-04-06T02:05:29.246Z,85.40
2019-04-06T02:07:59.834Z,85.00
2019-04-06T02:10:30.580Z,85.50
2019-04-06T02:13:01.142Z,85.40
2019-04-06T02:15:31.714Z,84.90
2019-04-06T02:18:05.951Z,84.40
2019-04-06T02:20:36.369Z,84.10
2019-04-06T02:23:06.937Z,84.20
2019-04-06T02:25:39.093Z,83.30
2019-04-06T02:28:09.614Z,84.10
2019-04-06T02:31:11.268Z,82.90
2019-04-06T02:33:46.576Z,83.20
2019-04-06T02:36:24.976Z,81.50
2019-04-06T02:39:00.551Z,81.40
2019-04-06T02:41:39.165Z,81.80
2019-04-06T02:44:10.059Z,81.80
2019-04-06T02:46:40.939Z,79.70
2019-04-06T02:49:12.058Z,79.30
2019-04-06T02:51:43.129Z,78.90
2019-04-06T02:54:14.237Z,78.10
2019-04-06T02:56:47.396Z,78.20
2019-04-06T02:59:18.047Z,77.80
2019-04-06T03:01:49.041Z,77.80
2019-04-06T03:04:20.556Z,77.00
2019-04-06T03:06:51.534Z,77.80
2019-04-06T03:09:22.476Z,76.40
2019-04-06T03:11:53.579Z,76.20
2019-04-06T03:14:24.464Z,76.50
2019-04-06T03:16:55.409Z,76.10
2019-04-06T03:19:26.765Z,76.00
2019-04-06T03:21:57.648Z,75.70
2019-04-06T03:24:28.525Z,75.60
2019-04-06T03:27:02.528Z,75.00
2019-04-06T03:29:31.896Z,76.10
2019-04-06T03:32:03.906Z,75.30
2019-04-06T03:34:55.640Z,74.90
2019-04-06T03:37:26.805Z,74.20
2019-04-06T03:40:16.798Z,73.10
2019-04-06T03:42:47.958Z,72.20
2019-04-06T03:45:18.953Z,72.20
2019-04-06T03:47:49.893Z,71.80
2019-04-06T03:50:21.219Z,71.80
2019-04-06T03:52:52.001Z,72.70
2019-04-06T03:55:22.883Z,72.70
2019-04-06T03:57:54.010Z,73.80
2019-04-06T04:00:24.847Z,73.60
2019-04-06T04:02:55.566Z,73.10
2019-04-06T04:05:26.660Z,74.00
2019-04-06T04:07:57.715Z,74.20
2019-04-06T04:10:34.215Z,74.20
2019-04-06T04:13:05.072Z,74.30
2019-04-06T04:15:35.859Z,74.40
2019-04-06T04:18:06.909Z,74.60
2019-04-06T04:20:38.653Z,73.90
2019-04-06T04:23:12.457Z,73.80
2019-04-06T04:25:43.350Z,75.90
2019-04-06T04:28:14.197Z,75.00
2019-04-06T04:30:45.294Z,75.60
2019-04-06T04:33:16.501Z,76.10
2019-04-06T04:35:47.297Z,75.80
2019-04-06T04:38:18.384Z,76.00
2019-04-06T04:40:49.276Z,75.60
2019-04-06T04:43:20.159Z,75.50
2019-04-06T04:45:59.695Z,75.60
2019-04-06T04:48:30.637Z,75.60
2019-04-06T04:51:01.390Z,75.50
2019-04-06T04:53:32.432Z,75.80
2019-04-06T04:56:03.353Z,76.10
2019-04-06T04:58:34.249Z,75.30
2019-04-06T05:01:05.506Z,75.20
2019-04-06T05:03:36.445Z,75.10
2019-04-06T05:06:07.479Z,74.60
2019-04-06T05:08:58.381Z,72.70
2019-04-06T05:11:29.029Z,72.00
2019-04-06T05:14:36.063Z,71.90
2019-04-06T05:17:06.910Z,70.00
2019-04-06T05:19:37.659Z,69.10
2019-04-06T05:22:09.081Z,68.40
2019-04-06T05:24:40.063Z,67.00
2019-04-06T05:27:10.885Z,67.30
2019-04-06T05:29:42.157Z,67.80
2019-04-06T05:32:12.941Z,67.20
2019-04-06T05:34:47.089Z,66.40
2019-04-06T05:37:17.733Z,66.10
2019-04-06T05:39:48.379Z,66.00
2019-04-06T05:42:19.476Z,65.40
2019-04-06T05:45:10.342Z,66.40
2019-04-06T05:47:41.273Z,65.40
2019-04-06T05:50:11.907Z,65.20
2019-04-06T05:52:42.603Z,64.90
2019-04-06T05:55:13.156Z,65.30
2019-04-06T05:57:43.535Z,65.50
2019-04-06T06:00:14.201Z,64.70
2019-04-06T06:02:44.788Z,64.70
2019-04-06T06:05:15.286Z,65.00
2019-04-06T06:07:46.093Z,65.00
2019-04-06T06:10:16.646Z,64.40
2019-04-06T06:12:47.039Z,63.80
2019-04-06T06:15:17.514Z,64.50
2019-04-06T06:17:50.268Z,65.10
2019-04-06T06:20:20.834Z,62.30
2019-04-06T06:22:53.179Z,61.20
2019-04-06T06:25:24.024Z,61.10
2019-04-06T06:27:56.150Z,61.20
2019-04-06T06:30:27.616Z,60.70
2019-04-06T06:33:21.414Z,60.90
2019-04-06T06:36:12.688Z,60.80
2019-04-06T06:38:46.559Z,60.00
2019-04-06T06:41:20.041Z,59.30
2019-04-06T06:43:52.149Z,58.80
2019-04-06T06:46:23.037Z,58.40
2019-04-06T06:49:14.467Z,58.20
2019-04-06T06:51:45.448Z,58.20
2019-04-06T06:54:16.354Z,58.40
2019-04-06T06:56:47.117Z,58.10
2019-04-06T06:59:19.119Z,58.60
2019-04-06T07:01:50.306Z,58.40
2019-04-06T07:04:23.957Z,60.10
2019-04-06T07:06:54.932Z,61.30
2019-04-06T07:09:26.106Z,60.60
2019-04-06T07:11:57.311Z,60.70
2019-04-06T07:14:28.846Z,61.20
2019-04-06T07:16:59.461Z,61.70
2019-04-06T07:19:39.358Z,62.20
2019-04-06T07:22:11.276Z,61.40
2019-04-06T07:24:47.010Z,61.80
2019-04-06T07:27:17.942Z,61.50
2019-04-06T07:32:47.769Z,61.00
2019-04-06T07:35:19.179Z,61.60
2019-04-06T07:37:53.344Z,61.50
2019-04-06T07:43:22.618Z,61.80
2019-04-06T07:46:13.655Z,60.50
2019-04-06T07:48:44.325Z,60.30
2019-04-06T07:51:15.298Z,60.00
2019-04-06T07:53:46.406Z,60.70
2019-04-06T07:56:16.844Z,59.50
2019-04-06T07:58:49.813Z,59.30
2019-04-06T08:01:33.671Z,59.90
2019-04-06T08:04:04.454Z,58.60
2019-04-06T08:06:35.353Z,58.10
2019-04-06T08:09:07.730Z,58.70
2019-04-06T08:11:41.123Z,59.50
2019-04-06T08:14:12.153Z,60.00
2019-04-06T08:16:42.910Z,60.10
2019-04-06T08:19:14.150Z,60.70
2019-04-06T08:21:45.096Z,61.00
2019-04-06T08:24:17.259Z,62.10
2019-04-06T08:27:00.282Z,62.70
2019-04-06T08:29:31.275Z,62.10
2019-04-06T08:32:03.339Z,61.80
2019-04-06T08:37:13.539Z,62.10
2019-04-06T08:39:45.496Z,62.70
2019-04-06T08:42:16.355Z,63.10
2019-04-06T08:44:48.321Z,63.00
2019-04-06T08:47:19.174Z,63.00
2019-04-06T08:49:50.304Z,63.60
2019-04-06T08:52:21.672Z,64.80
2019-04-06T08:54:52.747Z,64.20
2019-04-06T08:57:23.674Z,65.00
2019-04-06T09:00:17.327Z,64.50
2019-04-06T09:02:48.011Z,65.40
2019-04-06T09:05:18.960Z,66.00
2019-04-06T09:08:10.116Z,66.20
2019-04-06T09:10:40.854Z,66.40
2019-04-06T09:13:13.216Z,66.50
2019-04-06T09:15:43.920Z,66.10
2019-04-06T09:18:14.635Z,66.10
2019-04-06T09:20:45.467Z,66.40
2019-04-06T09:23:19.501Z,66.60
2019-04-06T09:25:50.208Z,66.40
2019-04-06T09:28:21.275Z,67.30
2019-04-06T09:30:52.368Z,68.50
2019-04-06T09:33:43.386Z,68.90
2019-04-06T09:36:14.256Z,68.70
2019-04-06T09:38:44.643Z,68.30
2019-04-06T09:41:15.350Z,68.40
2019-04-06T09:43:46.112Z,68.40
2019-04-06T09:46:18.237Z,68.70
2019-04-06T09:49:26.918Z,68.10
2019-04-06T09:52:17.227Z,67.90
2019-04-06T09:54:58.595Z,68.80
2019-04-06T09:57:36.753Z,68.60
2019-04-06T10:00:27.229Z,68.10
2019-04-06T10:03:17.052Z,68.50
2019-04-06T10:06:07.785Z,69.10
2019-04-06T10:08:40.067Z,68.30
2019-04-06T10:11:12.639Z,68.20
2019-04-06T10:14:01.020Z,68.30
2019-04-06T10:16:42.499Z,68.50
2019-04-06T10:19:23.940Z,68.10
2019-04-06T10:22:13.043Z,67.20
2019-04-06T10:25:02.226Z,67.40
2019-04-06T10:27:50.915Z,68.00
2019-04-06T10:30:29.053Z,68.80
2019-04-06T10:42:58.431Z,69.90
2019-04-06T10:45:47.514Z,70.50
2019-04-06T10:48:22.574Z,70.40
2019-04-06T10:51:03.251Z,69.70
2019-04-06T10:53:52.087Z,70.20
2019-04-06T10:56:30.642Z,71.50
2019-04-06T10:59:08.254Z,72.30
2019-04-06T11:01:40.812Z,72.10
2019-04-06T11:04:12.886Z,72.10
2019-04-06T11:06:45.606Z,72.20
2019-04-06T11:09:33.772Z,73.10
2019-04-06T11:12:09.140Z,73.70
2019-04-06T11:14:41.659Z,74.00
2019-04-06T11:17:22.988Z,74.20
2019-04-06T11:19:55.202Z,74.70
2019-04-06T11:25:32.139Z,75.40
2019-04-06T11:28:04.646Z,75.90
2019-04-06T11:30:51.506Z,76.00
2019-04-06T11:33:47.274Z,75.90
2019-04-06T11:36:19.506Z,76.60
2019-04-06T11:38:54.777Z,76.60
2019-04-06T11:41:40.047Z,77.30
2019-04-06T11:47:11.087Z,76.20
2019-04-06T11:49:59.809Z,76.40
2019-04-06T11:52:31.886Z,76.80
2019-04-06T11:55:20.496Z,77.00
2019-04-06T11:58:08.993Z,77.70
2019-04-06T12:01:04.856Z,77.00
2019-04-06T12:03:40.974Z,77.30
2019-04-06T12:06:21.874Z,77.00
2019-04-06T12:08:54.198Z,77.30
2019-04-06T12:11:35.002Z,77.20
2019-04-06T12:26:43.006Z,77.00
2019-04-06T12:36:13.897Z,77.50
2019-04-06T12:38:50.327Z,77.70
2019-04-06T12:41:39.568Z,77.80
2019-04-06T12:44:29.734Z,77.80
2019-04-06T12:47:13.121Z,78.20
2019-04-06T13:00:26.657Z,79.80
2019-04-06T13:03:37.191Z,79.90
2019-04-06T13:06:25.277Z,80.40
2019-04-06T13:09:00.905Z,80.20
2019-04-06T13:11:49.335Z,80.70
2019-04-06T13:14:22.745Z,81.60
2019-04-06T13:20:04.883Z,80.90
2019-04-06T13:22:45.817Z,81.10
2019-04-06T13:25:20.929Z,81.40
2019-04-06T13:27:53.399Z,81.70
2019-04-06T13:30:35.176Z,82.10
2019-04-06T13:33:12.325Z,82.50
2019-04-06T13:35:45.934Z,83.30
2019-04-06T13:38:36.642Z,83.50
2019-04-06T13:41:25.293Z,84.00
2019-04-06T13:50:39.361Z,84.30
2019-04-06T13:53:15.793Z,84.30
2019-04-06T13:55:48.965Z,84.10
2019-04-06T13:58:24.654Z,84.00
2019-04-06T14:01:13.779Z,83.90
2019-04-06T14:06:44.107Z,83.60
2019-04-06T14:09:16.520Z,83.30
2019-04-06T14:11:49.088Z,83.40
2019-04-06T14:14:22.604Z,83.60
2019-04-06T14:17:16.535Z,83.70
2019-04-06T14:22:50.791Z,83.00
2019-04-06T14:25:37.344Z,83.10
2019-04-06T14:28:27.611Z,83.00
2019-04-06T14:34:01.057Z,83.30
2019-04-06T14:37:16.284Z,83.40
2019-04-06T14:42:56.521Z,83.60
2019-04-06T14:48:27.793Z,83.80
2019-04-06T14:51:22.668Z,83.90
2019-04-06T14:54:18.055Z,83.80
2019-04-06T14:59:53.502Z,83.20
2019-04-06T15:02:44.965Z,83.20
2019-04-06T15:05:45.749Z,83.00
2019-04-06T15:08:22.286Z,83.00
2019-04-06T15:11:11.618Z,83.20
2019-04-06T15:13:47.722Z,83.60
2019-04-06T15:16:21.080Z,83.70
2019-04-06T15:19:12.026Z,83.80
2019-04-06T15:21:58.684Z,84.00
2019-04-06T15:24:41.873Z,83.80
2019-04-06T15:27:41.849Z,83.70
2019-04-06T15:30:32.609Z,83.50
2019-04-06T15:33:23.226Z,83.20
2019-04-06T15:36:14.717Z,83.40
2019-04-06T15:39:03.806Z,83.60
2019-04-06T15:41:36.945Z,83.80
2019-04-06T15:44:25.649Z,84.10
2019-04-06T15:47:02.918Z,84.70
2019-04-06T15:49:39.173Z,84.90
2019-04-06T15:52:16.987Z,85.00
2019-04-06T15:55:07.926Z,85.10
2019-04-06T15:58:14.688Z,85.30
2019-04-06T16:00:45.784Z,85.50
2019-04-06T16:03:37.569Z,85.50
2019-04-06T16:06:13.854Z,85.50
2019-04-06T16:08:46.252Z,85.70
2019-04-06T16:11:33.666Z,85.50
2019-04-06T16:14:05.979Z,85.60
2019-04-06T16:16:50.047Z,86.00
2019-04-06T16:19:38.406Z,86.20
2019-04-06T16:22:16.710Z,86.20
2019-04-06T16:24:52.408Z,86.30
2019-04-06T16:27:23.369Z,86.30
2019-04-06T16:30:08.246Z,86.40
2019-04-06T16:32:45.188Z,86.40
2019-04-06T16:35:35.282Z,86.50
2019-04-06T16:38:11.270Z,86.40
2019-04-06T16:40:59.304Z,86.50
2019-04-06T16:46:42.521Z,86.40
2019-04-06T16:49:29.010Z,86.50
2019-04-06T16:52:02.167Z,86.90
2019-04-06T16:54:34.390Z,86.80
2019-04-06T16:57:19.735Z,86.70
2019-04-06T16:59:54.959Z,86.40
2019-04-06T17:02:28.170Z,86.60
2019-04-06T17:05:04.203Z,86.40
2019-04-06T17:07:46.499Z,86.00
2019-04-06T17:10:25.623Z,85.70
2019-04-06T17:13:08.175Z,86.20
2019-04-06T17:15:42.351Z,86.20
2019-04-06T17:18:14.622Z,86.40
2019-04-06T17:20:54.630Z,86.50
2019-04-06T17:23:31.200Z,86.50
2019-04-06T17:26:03.886Z,86.30
2019-04-06T17:28:39.675Z,86.40
2019-04-06T17:31:13.811Z,86.70
2019-04-06T17:33:59.485Z,86.80
2019-04-06T17:36:46.014Z,86.90
2019-04-06T17:39:36.137Z,87.30
2019-04-06T17:42:15.708Z,87.10
2019-04-06T17:44:50.915Z,87.40
2019-04-06T17:47:26.590Z,87.40
2019-04-06T17:49:58.007Z,87.80
2019-04-06T17:52:32.340Z,87.70
2019-04-06T17:55:06.355Z,87.50
2019-04-06T17:57:38.536Z,87.70
2019-04-06T18:00:25.334Z,88.00
2019-04-06T18:03:05.373Z,87.60
2019-04-06T18:05:44.811Z,87.60
2019-04-06T18:08:18.142Z,87.50
2019-04-06T18:10:58.266Z,87.90
2019-04-06T18:13:34.459Z,88.00
2019-04-06T18:16:07.764Z,87.90
2019-04-06T18:18:42.940Z,87.90
2019-04-06T18:21:15.443Z,87.70
2019-04-06T18:23:47.120Z,87.30
2019-04-06T18:26:19.233Z,87.10
2019-04-06T18:28:52.753Z,86.80
2019-04-06T18:31:25.302Z,87.00
2019-04-06T18:33:56.954Z,86.80
2019-04-06T18:36:44.396Z,86.90
2019-04-06T18:39:20.008Z,87.00
2019-04-06T18:41:51.259Z,87.00
2019-04-06T18:44:22.363Z,87.30
2019-04-06T18:46:58.728Z,87.50
2019-04-06T18:49:33.142Z,87.20
2019-04-06T18:52:05.173Z,87.30
2019-04-06T18:54:40.593Z,87.50
2019-04-06T18:57:11.952Z,87.20
2019-04-06T18:59:43.187Z,87.40
2019-04-06T19:02:14.674Z,87.70
2019-04-06T19:04:45.610Z,87.80
2019-04-06T19:07:17.678Z,88.50
2019-04-06T19:09:48.965Z,87.80
2019-04-06T19:12:20.009Z,87.80
2019-04-06T19:14:50.871Z,87.50
2019-04-06T19:17:21.585Z,87.50
2019-04-06T19:19:52.626Z,86.70
2019-04-06T19:22:23.343Z,86.00
2019-04-06T19:24:54.526Z,85.40
2019-04-06T19:27:25.213Z,85.30
2019-04-06T19:29:56.772Z,85.60
2019-04-06T19:32:27.619Z,85.80
2019-04-06T19:34:58.485Z,85.60
2019-04-06T19:37:29.195Z,85.50
2019-04-06T19:40:00.607Z,85.80
2019-04-06T19:42:31.535Z,86.00
2019-04-06T19:45:02.930Z,86.10
2019-04-06T19:47:35.128Z,85.90
2019-04-06T19:50:07.398Z,85.90
2019-04-06T19:55:27.152Z,86.30
2019-04-06T19:57:58.101Z,86.40
2019-04-06T20:00:28.904Z,86.40
2019-04-06T20:02:59.690Z,86.30
2019-04-06T20:05:30.933Z,86.40
2019-04-06T20:08:01.702Z,86.70
2019-04-06T20:10:32.425Z,86.50
2019-04-06T20:13:03.079Z,86.70
2019-04-06T20:15:37.718Z,86.50
2019-04-06T20:18:09.162Z,86.60
2019-04-06T20:20:39.954Z,86.60
2019-04-06T20:23:11.097Z,86.80
2019-04-06T20:25:42.669Z,86.70
2019-04-06T20:28:13.355Z,87.00
2019-04-06T20:30:44.137Z,86.80
2019-04-06T20:33:14.969Z,87.00
2019-04-06T20:35:47.690Z,87.20
2019-04-06T20:38:20.125Z,87.40
2019-04-06T20:40:51.059Z,87.50
2019-04-06T20:43:21.773Z,87.50
2019-04-06T20:45:52.575Z,87.50
2019-04-06T20:48:25.741Z,87.60
2019-04-06T20:50:56.514Z,87.70
2019-04-06T20:53:27.644Z,87.90
2019-04-06T20:58:49.237Z,88.00
2019-04-06T21:01:20.191Z,88.00
2019-04-06T21:04:00.436Z,88.10
2019-04-06T21:06:23.433Z,88.20
2019-04-06T21:08:54.369Z,88.20
2019-04-06T21:11:25.407Z,88.30
2019-04-06T21:13:56.217Z,88.50
2019-04-06T21:16:27.649Z,88.60
2019-04-06T21:18:58.863Z,88.90
2019-04-06T21:21:30.308Z,88.90
2019-04-06T21:24:01.554Z,88.80
2019-04-06T21:26:32.618Z,88.80
2019-04-06T21:29:03.693Z,88.80
2019-04-06T21:31:35.246Z,88.70
2019-04-06T21:34:12.031Z,88.70
2019-04-06T21:36:38.296Z,88.80
2019-04-06T21:39:09.739Z,88.90
2019-04-06T21:41:40.686Z,88.80
2019-04-06T21:44:12.144Z,88.80
2019-04-06T21:46:42.728Z,88.90
2019-04-06T21:49:14.697Z,89.00
2019-04-06T21:51:45.890Z,89.00
2019-04-06T21:54:17.501Z,89.10
2019-04-06T21:56:49.109Z,89.10
2019-04-06T21:59:20.071Z,89.00
2019-04-06T22:01:51.235Z,89.10
2019-04-06T22:04:25.897Z,89.10
2019-04-06T22:06:54.346Z,89.10
2019-04-06T22:09:25.389Z,89.10
2019-04-06T22:11:56.341Z,89.00
2019-04-06T22:14:27.122Z,89.10
2019-04-06T22:16:58.378Z,89.10
2019-04-06T22:19:29.142Z,89.30
2019-04-06T22:22:00.026Z,89.10
2019-04-06T22:24:30.701Z,89.00
2019-04-06T22:27:01.938Z,89.00
2019-04-06T22:29:33.198Z,89.10
2019-04-06T22:32:04.042Z,89.10
2019-04-06T22:34:39.716Z,89.10
2019-04-06T22:37:07.441Z,89.10
2019-04-06T22:39:38.206Z,89.10
2019-04-06T22:42:08.941Z,89.20
2019-04-06T22:44:40.057Z,89.10
2019-04-06T22:47:10.619Z,89.10
2019-04-06T22:50:01.676Z,89.10
2019-04-06T22:52:32.484Z,89.10
2019-04-06T22:55:03.221Z,89.30
2019-04-06T22:57:34.574Z,89.30
2019-04-06T23:00:06.736Z,89.30
2019-04-06T23:02:39.611Z,89.60
2019-04-06T23:05:15.160Z,89.70
2019-04-06T23:07:46.041Z,89.80
2019-04-06T23:10:16.807Z,89.90
2019-04-06T23:12:47.544Z,89.90
2019-04-06T23:15:18.640Z,90.00
2019-04-06T23:17:49.901Z,90.00
2019-04-06T23:20:20.622Z,90.10
2019-04-06T23:23:10.493Z,90.10
2019-04-06T23:25:41.483Z,90.20
2019-04-06T23:28:12.722Z,90.40
2019-04-06T23:30:44.100Z,90.40
2019-04-06T23:33:14.833Z,90.50
2019-04-06T23:35:46.088Z,90.60
2019-04-06T23:38:17.730Z,90.60
2019-04-06T23:40:48.739Z,90.70
2019-04-06T23:43:19.781Z,90.80
2019-04-06T23:45:50.754Z,90.80
2019-04-06T23:48:21.948Z,90.90
2019-04-06T23:50:53.629Z,90.90
2019-04-06T23:53:24.547Z,91.00
2019-04-06T23:55:55.196Z,91.00
2019-04-06T23:58:26.127Z,91.20
